Time;durP1;ratioP1;P1;durP2;ratioP2;P2;SDS_P1;SDS_P2;PMS_P1;PMS_P2;Temp;Humidity;BMP_temperature;BMP_pressure;BME280_temperature;BME280_humidity;BME280_pressure;Samples;Min_cycle;Max_cycle;Signal;HPM_P1;HPM_P2
2023/04/16 00:00:08;;;;;;;25.23;8.45;;;;;;;15.65;78.70;100535.53;5075014;28;20036;-85
2023/04/16 00:02:34;;;;;;;26.40;8.23;;;;;;;15.63;78.44;100527.56;5070724;28;20377;-90
2023/04/16 00:04:59;;;;;;;18.40;7.93;;;;;;;15.76;78.01;100529.84;5069217;28;20028;-86
2023/04/16 00:07:24;;;;;;;39.88;10.25;;;;;;;15.69;77.23;100528.78;5069930;28;20028;-87
2023/04/16 00:09:50;;;;;;;25.00;9.18;;;;;;;15.71;77.15;100521.34;5069792;28;20064;-92
2023/04/16 00:12:15;;;;;;;22.67;9.52;;;;;;;15.77;77.22;100539.69;5071281;28;20086;-88
2023/04/16 00:14:42;;;;;;;22.42;8.20;;;;;;;15.84;76.94;100529.88;5073966;28;20045;-88
2023/04/16 00:17:08;;;;;;;21.27;8.32;;;;;;;15.79;76.75;100529.53;5072541;28;20025;-88
2023/04/16 00:19:34;;;;;;;18.67;7.97;;;;;;;15.90;76.07;100534.66;5072568;28;20038;-89
2023/04/16 00:21:59;;;;;;;28.75;9.18;;;;;;;15.85;75.83;100531.59;5078306;28;20016;-89
2023/04/16 00:24:25;;;;;;;16.20;8.48;;;;;;;15.90;75.36;100526.53;5082373;28;20051;-86
2023/04/16 00:26:50;;;;;;;22.88;7.85;;;;;;;15.95;74.94;100532.34;5086978;28;20479;-83
2023/04/16 00:29:15;;;;;;;19.98;6.88;;;;;;;15.81;75.50;100521.25;5090484;28;20063;-82
2023/04/16 00:31:41;;;;;;;28.13;9.18;;;;;;;15.81;75.96;100530.19;5091716;28;20017;-80
2023/04/16 00:34:06;;;;;;;25.27;7.88;;;;;;;15.77;76.09;100512.56;5093626;28;20101;-82
2023/04/16 00:36:32;;;;;;;22.13;8.60;;;;;;;15.82;75.93;100525.63;5095885;28;20032;-80
2023/04/16 00:38:57;;;;;;;33.10;9.23;;;;;;;15.85;75.56;100518.03;5090089;28;20516;-86
2023/04/16 00:41:23;;;;;;;31.70;8.45;;;;;;;15.83;75.76;100528.19;5089414;28;20023;-87
2023/04/16 00:43:49;;;;;;;35.78;9.00;;;;;;;15.87;75.69;100521.41;5073734;28;20044;-80
2023/04/16 00:46:15;;;;;;;19.52;7.30;;;;;;;15.85;75.62;100518.03;5094001;28;20033;-80
2023/04/16 00:48:43;;;;;;;36.20;8.82;;;;;;;15.82;75.76;100509.34;5084677;28;20695;-92
2023/04/16 00:51:08;;;;;;;18.48;8.45;;;;;;;15.91;75.72;100517.38;5069646;28;20090;-87
2023/04/16 00:53:34;;;;;;;40.90;9.35;;;;;;;15.99;75.58;100520.13;5069403;28;20036;-90
2023/04/16 00:56:04;;;;;;;26.83;9.02;;;;;;;16.03;75.46;100513.38;5068849;28;20104;-89
2023/04/16 00:58:31;;;;;;;24.77;7.78;;;;;;;16.06;75.29;100515.75;5069674;28;20032;-87
2023/04/16 01:00:56;;;;;;;22.88;8.45;;;;;;;16.12;74.97;100506.97;5069453;28;20021;-88
2023/04/16 01:03:39;;;;;;;31.08;8.35;;;;;;;16.18;74.67;100519.03;5060079;28;20033;-83
2023/04/16 01:06:06;;;;;;;27.27;7.57;;;;;;;16.19;74.32;100510.75;5059676;28;20024;-89
2023/04/16 01:08:32;;;;;;;27.27;7.60;;;;;;;16.20;73.98;100500.75;5059599;28;20480;-89
2023/04/16 01:10:57;;;;;;;16.27;7.45;;;;;;;16.16;74.04;100511.06;5075580;28;20036;-83
2023/04/16 01:13:23;;;;;;;22.10;8.25;;;;;;;16.15;74.59;100514.78;5064452;28;20102;-90
2023/04/16 01:15:48;;;;;;;23.17;8.73;;;;;;;16.22;74.60;100510.41;5071007;28;20788;-89
2023/04/16 01:18:15;;;;;;;27.35;9.73;;;;;;;16.26;74.42;100495.50;5070419;28;20029;-89
2023/04/16 01:20:40;;;;;;;27.40;8.52;;;;;;;16.28;73.85;100493.47;5052924;28;20464;-87
2023/04/16 01:23:06;;;;;;;25.13;9.88;;;;;;;16.28;74.12;100508.91;5053658;28;20033;-89
2023/04/16 01:25:31;;;;;;;21.73;8.48;;;;;;;16.30;73.95;100493.28;5068128;28;20052;-88
2023/04/16 01:27:58;;;;;;;25.98;9.05;;;;;;;16.21;74.10;100487.00;5067194;28;20431;-91
2023/04/16 01:30:23;;;;;;;31.58;8.10;;;;;;;16.22;74.29;100488.69;5052281;28;20020;-86
2023/04/16 01:32:49;;;;;;;32.72;8.93;;;;;;;16.20;74.22;100488.03;5052711;28;20036;-84
2023/04/16 01:35:16;;;;;;;15.27;8.00;;;;;;;16.12;74.74;100493.41;5078784;28;20013;-82
2023/04/16 01:37:42;;;;;;;28.02;8.75;;;;;;;16.09;74.54;100488.31;5088514;28;20024;-81
2023/04/16 01:40:08;;;;;;;22.83;7.03;;;;;;;15.92;75.68;100480.25;5044240;28;20098;-87
2023/04/16 01:42:34;;;;;;;28.02;8.40;;;;;;;15.98;75.76;100477.75;5074643;28;20044;-83
2023/04/16 01:44:59;;;;;;;31.35;9.68;;;;;;;16.08;75.82;100497.47;5076837;28;20115;-79
2023/04/16 01:47:25;;;;;;;30.35;8.13;;;;;;;16.09;75.44;100487.44;5062340;28;20071;-86
2023/04/16 01:49:50;;;;;;;24.33;8.57;;;;;;;16.15;75.42;100484.94;5068607;28;20581;-91
2023/04/16 01:52:16;;;;;;;29.25;7.82;;;;;;;16.15;75.30;100476.78;5060465;28;20024;-89
2023/04/16 01:54:41;;;;;;;25.65;8.63;;;;;;;16.12;75.22;100481.69;5075054;28;20038;-85
2023/04/16 01:57:07;;;;;;;34.47;8.88;;;;;;;16.19;75.09;100478.19;5043309;28;20041;-89
2023/04/16 01:59:32;;;;;;;27.58;8.70;;;;;;;16.20;74.82;100479.88;5051776;28;20560;-88
2023/04/16 02:02:26;;;;;;;27.80;8.55;;;;;;;16.29;74.79;100487.03;5051742;28;20033;-89
2023/04/16 02:04:52;;;;;;;23.20;8.73;;;;;;;16.20;74.70;100485.31;4970160;28;20493;-87
2023/04/16 02:07:18;;;;;;;23.20;8.23;;;;;;;16.20;74.72;100477.16;4969797;28;20043;-91
2023/04/16 02:09:43;;;;;;;21.20;8.32;;;;;;;16.27;74.50;100478.19;4983978;28;20069;-90
2023/04/16 02:12:10;;;;;;;23.30;8.65;;;;;;;16.31;74.24;100476.84;4990217;28;20053;-88
2023/04/16 02:14:36;;;;;;;19.15;8.95;;;;;;;16.30;73.95;100469.72;4988759;28;20101;-88
2023/04/16 02:17:01;;;;;;;29.65;8.75;;;;;;;16.27;73.95;100464.63;4989381;28;20038;-87
2023/04/16 02:19:27;;;;;;;24.17;9.10;;;;;;;16.28;73.95;100463.63;4989560;28;20121;-89
2023/04/16 02:21:52;;;;;;;24.17;8.30;;;;;;;16.30;73.56;100466.16;4990809;28;20102;-89
2023/04/16 02:24:19;;;;;;;30.63;8.45;;;;;;;16.20;73.92;100469.03;4989854;28;20038;-88
2023/04/16 02:26:44;;;;;;;23.30;9.10;;;;;;;16.15;74.01;100460.50;4988553;28;20073;-86
2023/04/16 02:29:10;;;;;;;33.78;10.48;;;;;;;16.14;74.05;100456.13;4989067;28;20085;-90
2023/04/16 02:31:35;;;;;;;26.77;9.15;;;;;;;16.26;73.70;100462.09;4985207;28;20126;-88
2023/04/16 02:34:01;;;;;;;33.40;9.13;;;;;;;16.26;73.72;100467.50;4972899;28;20027;-87
2023/04/16 02:36:27;;;;;;;41.47;9.00;;;;;;;16.32;73.64;100462.28;4984845;28;20080;-88
2023/04/16 02:38:52;;;;;;;27.85;11.00;;;;;;;16.30;73.71;100450.72;4995837;28;20045;-81
2023/04/16 02:41:18;;;;;;;33.58;11.35;;;;;;;16.33;73.87;100455.81;5032684;28;20038;-80
2023/04/16 02:43:43;;;;;;;30.52;9.57;;;;;;;16.34;73.25;100445.81;5063053;28;20037;-83
2023/04/16 02:46:09;;;;;;;24.58;8.82;;;;;;;16.23;73.53;100446.13;5056004;28;20033;-87
2023/04/16 02:48:35;;;;;;;23.75;9.57;;;;;;;16.17;73.96;100446.78;5066935;28;20073;-83
2023/04/16 02:51:00;;;;;;;31.58;9.52;;;;;;;16.12;74.27;100450.00;5056099;28;20029;-86
2023/04/16 02:53:25;;;;;;;33.70;8.07;;;;;;;16.11;74.57;100448.31;5069904;28;20029;-89
2023/04/16 02:55:52;;;;;;;28.15;8.70;;;;;;;16.09;75.08;100438.59;5068450;28;20032;-87
2023/04/16 02:58:18;;;;;;;22.67;8.85;;;;;;;16.20;74.88;100447.31;5075760;28;20032;-89
2023/04/16 03:00:44;;;;;;;24.00;8.35;;;;;;;16.21;74.78;100443.56;5050751;28;20440;-87
2023/04/16 03:03:10;;;;;;;28.92;9.98;;;;;;;16.31;74.59;100455.16;5050236;28;20033;-89
2023/04/16 03:05:35;;;;;;;18.80;8.30;;;;;;;16.22;74.53;100431.72;5068381;28;20044;-88
2023/04/16 03:08:02;;;;;;;28.80;9.45;;;;;;;16.36;74.76;100459.22;5068719;28;20461;-89
2023/04/16 03:10:27;;;;;;;19.75;8.70;;;;;;;16.42;74.57;100456.69;5060770;28;20043;-88
2023/04/16 03:12:53;;;;;;;28.55;8.57;;;;;;;16.41;74.44;100460.44;5075038;28;20103;-89
2023/04/16 03:15:18;;;;;;;36.95;9.80;;;;;;;16.49;74.24;100459.56;5070471;28;20066;-86
2023/04/16 03:17:43;;;;;;;22.83;9.25;;;;;;;16.51;74.19;100465.72;5073321;28;20032;-88
2023/04/16 03:20:09;;;;;;;45.97;10.32;;;;;;;16.51;74.33;100460.28;5061773;28;20087;-83
2023/04/16 03:22:35;;;;;;;20.58;8.18;;;;;;;16.51;74.37;100465.72;5052636;28;20496;-87
2023/04/16 03:25:00;;;;;;;32.35;10.20;;;;;;;16.51;74.11;100454.84;5050186;28;20025;-88
2023/04/16 03:27:26;;;;;;;32.13;9.65;;;;;;;16.61;73.88;100456.41;5050654;28;20029;-88
2023/04/16 03:29:51;;;;;;;22.73;8.27;;;;;;;16.63;73.95;100464.41;5034683;28;20040;-92
2023/04/16 03:32:17;;;;;;;29.10;9.40;;;;;;;16.52;73.74;100441.09;5055514;28;20029;-90
2023/04/16 03:34:42;;;;;;;28.05;8.65;;;;;;;16.50;73.16;100455.84;5071144;28;20031;-89
2023/04/16 03:37:10;;;;;;;18.83;8.30;;;;;;;16.52;73.62;100453.81;5080909;28;20027;-80
2023/04/16 03:39:36;;;;;;;27.33;9.07;;;;;;;16.51;73.60;100452.13;5092080;28;20035;-82
2023/04/16 03:42:02;;;;;;;25.77;9.65;;;;;;;16.59;73.58;100469.31;5090488;28;20024;-80
2023/04/16 03:44:28;;;;;;;27.17;9.57;;;;;;;16.59;73.60;100460.31;5069877;28;20035;-89
2023/04/16 03:46:54;;;;;;;27.30;10.13;;;;;;;16.69;73.25;100466.44;5040046;28;20103;-88
2023/04/16 03:49:19;;;;;;;30.98;11.07;;;;;;;16.71;73.19;100467.13;5050274;28;20033;-89
2023/04/16 03:51:45;;;;;;;28.00;10.65;;;;;;;16.73;73.13;100470.50;5049465;28;20056;-91
2023/04/16 03:54:10;;;;;;;24.77;10.57;;;;;;;16.75;73.30;100468.50;5049307;28;20033;-87
2023/04/16 03:56:36;;;;;;;30.48;12.02;;;;;;;16.78;73.22;100471.72;5071888;28;20029;-88
2023/04/16 03:59:01;;;;;;;41.17;10.77;;;;;;;16.78;73.06;100465.44;5081913;28;20139;-88
2023/04/16 04:01:27;;;;;;;33.13;11.73;;;;;;;16.88;73.10;100473.44;5071200;28;20032;-89
2023/04/16 04:03:52;;;;;;;34.17;10.40;;;;;;;16.89;73.02;100478.69;5037467;28;20021;-86
2023/04/16 04:06:18;;;;;;;31.05;10.50;;;;;;;16.96;72.76;100477.00;5052523;28;20119;-87
2023/04/16 04:08:43;;;;;;;30.63;11.38;;;;;;;16.97;72.82;100472.41;5066533;28;20049;-84
2023/04/16 04:11:08;;;;;;;27.55;10.27;;;;;;;16.92;72.68;100466.63;5057927;28;20124;-89
2023/04/16 04:13:34;;;;;;;46.97;10.98;;;;;;;16.96;72.48;100481.56;5066964;28;20088;-86
2023/04/16 04:15:59;;;;;;;41.75;12.85;;;;;;;17.01;72.60;100474.59;5069153;28;20021;-90
2023/04/16 04:18:25;;;;;;;28.60;11.05;;;;;;;17.05;72.76;100469.69;5070630;28;20542;-91
2023/04/16 04:20:51;;;;;;;34.60;11.77;;;;;;;17.11;72.83;100464.44;5053538;28;20029;-88
2023/04/16 04:23:16;;;;;;;25.08;8.75;;;;;;;17.19;72.52;100461.69;5068865;28;20024;-90
2023/04/16 04:25:42;;;;;;;33.50;9.05;;;;;;;17.24;72.19;100470.19;5051408;28;20025;-88
2023/04/16 04:28:07;;;;;;;39.97;11.40;;;;;;;17.26;71.96;100470.88;5050454;28;20021;-86
2023/04/16 04:30:34;;;;;;;26.70;8.77;;;;;;;17.26;71.85;100475.44;5053967;28;20025;-89
2023/04/16 04:32:59;;;;;;;34.28;9.05;;;;;;;17.30;72.00;100474.94;5058124;28;20028;-87
2023/04/16 04:35:25;;;;;;;23.05;9.38;;;;;;;17.36;71.56;100478.84;5071760;28;20035;-81
2023/04/16 04:37:50;;;;;;;28.55;9.85;;;;;;;17.46;71.16;100484.09;5088926;28;20059;-82
2023/04/16 04:40:16;;;;;;;43.05;12.10;;;;;;;17.54;71.16;100492.22;5089701;28;20055;-88
2023/04/16 04:42:41;;;;;;;43.05;11.43;;;;;;;17.64;70.96;100487.50;5069392;28;20060;-85
2023/04/16 04:45:08;;;;;;;38.63;10.35;;;;;;;17.70;70.96;100487.66;5078570;28;20005;-85
2023/04/16 04:47:33;;;;;;;45.50;11.55;;;;;;;17.82;70.41;100479.97;5086384;28;20080;-80
2023/04/16 04:49:59;;;;;;;43.30;11.52;;;;;;;17.91;70.44;100489.78;5090495;28;20044;-81
2023/04/16 04:52:24;;;;;;;44.28;11.02;;;;;;;17.99;70.35;100481.59;5097315;28;20048;-84
2023/04/16 04:54:51;;;;;;;36.03;9.88;;;;;;;18.13;69.42;100480.00;5078903;28;20032;-89
2023/04/16 04:57:17;;;;;;;27.25;9.68;;;;;;;18.17;69.20;100473.16;5065327;28;20405;-86
2023/04/16 04:59:42;;;;;;;46.63;11.20;;;;;;;18.19;68.80;100480.16;5074496;28;20027;-83
2023/04/16 05:02:08;;;;;;;41.40;10.52;;;;;;;18.27;68.46;100473.81;5056035;28;20362;-91
2023/04/16 05:04:33;;;;;;;31.52;9.80;;;;;;;18.34;68.02;100472.94;5069201;28;20128;-88
2023/04/16 05:06:58;;;;;;;27.83;9.15;;;;;;;18.51;67.50;100481.00;5064588;28;20037;-89
2023/04/16 05:09:24;;;;;;;46.47;9.27;;;;;;;18.43;67.13;100480.03;5066561;28;20051;-87
2023/04/16 05:11:50;;;;;;;34.75;9.15;;;;;;;18.46;66.63;100466.06;5068496;28;20036;-80
2023/04/16 05:14:15;;;;;;;44.17;9.93;;;;;;;18.62;66.26;100470.59;5058461;28;20179;-84
2023/04/16 05:16:41;;;;;;;36.50;10.00;;;;;;;18.72;65.78;100478.50;5071996;28;20094;-81
2023/04/16 05:19:06;;;;;;;26.48;9.30;;;;;;;18.81;65.60;100485.59;5061890;28;20028;-80
2023/04/16 05:21:32;;;;;;;44.97;9.98;;;;;;;18.83;65.41;100486.28;5083220;28;20053;-83
2023/04/16 05:23:58;;;;;;;23.13;8.52;;;;;;;18.85;65.15;100476.88;5072074;28;20111;-89
2023/04/16 05:26:23;;;;;;;34.38;8.73;;;;;;;18.89;64.99;100485.53;5053664;28;20059;-87
2023/04/16 05:28:49;;;;;;;34.22;7.65;;;;;;;18.87;64.52;100473.94;5054244;28;20040;-86
2023/04/16 05:31:14;;;;;;;20.70;8.60;;;;;;;18.88;64.71;100462.88;5069906;28;20029;-86
2023/04/16 05:33:39;;;;;;;26.02;8.98;;;;;;;19.02;64.54;100480.31;5078533;28;20035;-85
2023/04/16 05:36:05;;;;;;;48.92;9.77;;;;;;;19.08;64.47;100474.13;5082517;28;20205;-85
2023/04/16 05:38:31;;;;;;;32.30;9.07;;;;;;;19.04;63.92;100470.09;5086035;28;20048;-88
2023/04/16 05:40:57;;;;;;;53.55;10.48;;;;;;;19.02;63.91;100478.44;5063240;28;20441;-85
2023/04/16 05:43:22;;;;;;;24.58;7.93;;;;;;;19.18;64.17;100472.00;5064605;28;20028;-84
2023/04/16 05:45:48;;;;;;;36.47;8.20;;;;;;;19.25;63.55;100461.22;5053863;28;20067;-90
2023/04/16 05:48:13;;;;;;;21.95;6.78;;;;;;;19.36;63.66;100458.88;5066234;28;20136;-90
2023/04/16 05:50:39;;;;;;;43.00;9.82;;;;;;;19.49;63.22;100467.31;5057383;28;20040;-92
2023/04/16 05:53:06;;;;;;;27.02;7.45;;;;;;;19.60;62.76;100456.97;5076823;28;20039;-91
2023/04/16 05:55:32;;;;;;;53.25;10.82;;;;;;;19.66;62.49;100456.22;5069609;28;20094;-83
2023/04/16 05:57:57;;;;;;;28.23;8.18;;;;;;;19.52;62.65;100461.47;5023548;28;20045;-89
2023/04/16 06:00:23;;;;;;;24.55;7.55;;;;;;;19.59;62.58;100468.91;5052101;28;20089;-86
2023/04/16 06:02:49;;;;;;;65.72;13.32;;;;;;;19.16;63.26;100455.00;5046533;28;21120;-87
2023/04/16 06:05:15;;;;;;;34.78;8.40;;;;;;;19.24;63.33;100467.69;5055015;28;20524;-90
2023/04/16 06:07:40;;;;;;;25.02;7.82;;;;;;;19.29;63.37;100455.22;5049621;28;20036;-86
2023/04/16 06:10:06;;;;;;;29.75;8.85;;;;;;;19.36;63.49;100456.16;5067384;28;20558;-92
2023/04/16 06:12:31;;;;;;;24.80;7.22;;;;;;;19.18;63.57;100454.78;5054296;28;20107;-89
2023/04/16 06:14:57;;;;;;;34.13;7.88;;;;;;;19.07;64.24;100461.53;5060349;28;20094;-90
2023/04/16 06:17:22;;;;;;;59.50;9.57;;;;;;;19.14;64.32;100448.88;5067861;28;20082;-82
2023/04/16 06:19:48;;;;;;;22.98;6.93;;;;;;;19.07;64.07;100456.09;5074167;28;20037;-82
2023/04/16 06:22:13;;;;;;;31.58;10.23;;;;;;;19.02;63.87;100456.63;5077062;28;20037;-87
2023/04/16 06:24:39;;;;;;;28.10;9.10;;;;;;;18.87;64.06;100443.97;5069527;28;20044;-86
2023/04/16 06:27:04;;;;;;;24.15;9.20;;;;;;;18.86;64.83;100458.66;5080129;28;20032;-87
2023/04/16 06:29:30;;;;;;;39.45;10.88;;;;;;;18.80;64.93;100441.16;5062286;28;20033;-86
2023/04/16 06:31:55;;;;;;;27.52;7.15;;;;;;;18.93;64.55;100465.06;5073419;28;20031;-82
2023/04/16 06:34:21;;;;;;;27.13;7.75;;;;;;;19.16;64.11;100471.34;5081387;28;20062;-81
2023/04/16 06:36:46;;;;;;;35.03;8.57;;;;;;;19.08;63.18;100446.84;5062456;28;20086;-88
2023/04/16 06:39:12;;;;;;;17.60;6.82;;;;;;;19.17;63.93;100455.84;5080194;28;20589;-82
2023/04/16 06:41:37;;;;;;;24.77;8.05;;;;;;;19.35;63.59;100459.06;5043573;28;20040;-87
2023/04/16 06:44:02;;;;;;;32.30;6.93;;;;;;;19.55;63.27;100454.78;5062843;28;20375;-87
2023/04/16 06:46:28;;;;;;;23.70;7.05;;;;;;;19.71;61.93;100459.22;5073026;28;20032;-90
2023/04/16 06:48:53;;;;;;;32.33;9.57;;;;;;;19.67;62.25;100457.91;5063180;28;20032;-83
2023/04/16 06:51:19;;;;;;;37.83;8.35;;;;;;;19.67;62.37;100457.91;5072598;28;20028;-89
2023/04/16 06:53:45;;;;;;;20.55;7.57;;;;;;;19.82;61.99;100456.03;5070166;28;20028;-89
2023/04/16 06:56:10;;;;;;;23.45;7.78;;;;;;;19.70;61.36;100458.38;5061828;28;20040;-91
2023/04/16 06:58:35;;;;;;;27.75;9.18;;;;;;;19.62;61.56;100449.44;5054376;28;20037;-88
2023/04/16 07:01:01;;;;;;;24.90;7.65;;;;;;;19.67;61.59;100446.97;5068096;28;20441;-90
2023/04/16 07:03:27;;;;;;;23.17;6.97;;;;;;;19.47;61.57;100453.00;5061509;28;20021;-90
2023/04/16 07:05:52;;;;;;;29.02;7.82;;;;;;;19.54;61.27;100445.75;5071957;28;20048;-87
2023/04/16 07:08:18;;;;;;;22.77;7.22;;;;;;;19.50;61.36;100454.53;5070479;28;20084;-89
2023/04/16 07:10:44;;;;;;;27.35;6.50;;;;;;;19.36;61.75;100456.16;5054494;28;20043;-89
2023/04/16 07:13:09;;;;;;;28.85;7.07;;;;;;;19.26;62.38;100466.50;5068997;28;20094;-89
2023/04/16 07:15:35;;;;;;;25.40;8.13;;;;;;;19.09;63.28;100470.38;5069565;28;20104;-91
2023/04/16 07:18:00;;;;;;;22.33;7.15;;;;;;;18.93;63.57;100465.91;5064994;28;20036;-86
2023/04/16 07:20:26;;;;;;;24.70;8.02;;;;;;;19.01;63.48;100468.59;5067892;28;20047;-87
2023/04/16 07:22:51;;;;;;;16.80;6.93;;;;;;;19.17;63.25;100474.94;5072279;28;20029;-82
2023/04/16 07:25:16;;;;;;;34.45;8.23;;;;;;;19.10;63.37;100480.25;5071605;28;20009;-86
2023/04/16 07:27:42;;;;;;;30.67;7.75;;;;;;;19.07;63.17;100477.91;5068351;28;20100;-77
2023/04/16 07:30:08;;;;;;;25.10;7.20;;;;;;;18.93;64.12;100462.31;5085479;28;20035;-86
2023/04/16 07:32:33;;;;;;;15.07;7.40;;;;;;;18.90;64.01;100458.09;5071023;28;20511;-92
2023/04/16 07:34:59;;;;;;;29.52;7.97;;;;;;;18.84;64.28;100466.16;5063786;28;20028;-85
2023/04/16 07:37:24;;;;;;;23.65;7.10;;;;;;;18.81;64.36;100455.59;5072200;28;20039;-82
2023/04/16 07:39:51;;;;;;;22.27;7.18;;;;;;;18.78;64.81;100450.53;5058328;28;20424;-82
2023/04/16 07:42:16;;;;;;;38.42;7.97;;;;;;;18.85;64.35;100452.34;5061679;28;20617;-85
2023/04/16 07:44:42;;;;;;;21.75;7.78;;;;;;;18.91;64.15;100453.50;5056018;28;20037;-88
2023/04/16 07:47:07;;;;;;;34.65;8.65;;;;;;;18.95;64.01;100454.84;5049495;28;20029;-88
2023/04/16 07:49:33;;;;;;;43.58;8.90;;;;;;;18.97;63.62;100445.44;5050390;28;20051;-80
2023/04/16 07:51:58;;;;;;;27.20;8.00;;;;;;;19.08;63.21;100446.03;5031683;28;20104;-84
2023/04/16 07:54:24;;;;;;;28.05;7.38;;;;;;;19.05;62.96;100447.22;5050373;28;20047;-84
2023/04/16 07:56:49;;;;;;;31.30;7.50;;;;;;;19.16;62.77;100435.91;5050971;28;20029;-86
2023/04/16 07:59:15;;;;;;;20.70;6.78;;;;;;;19.33;62.49;100440.16;5052010;28;20036;-84
2023/04/16 08:01:40;;;;;;;19.23;7.10;;;;;;;19.44;62.41;100437.03;5069653;28;20032;-82
2023/04/16 08:04:06;;;;;;;26.67;6.80;;;;;;;19.69;61.47;100434.03;5069561;28;20090;-84
2023/04/16 08:06:31;;;;;;;27.02;7.43;;;;;;;19.74;61.50;100447.94;5018580;28;20043;-82
2023/04/16 08:08:56;;;;;;;26.45;6.63;;;;;;;19.83;60.74;100436.75;5069562;28;20119;-83
2023/04/16 08:11:22;;;;;;;34.03;8.25;;;;;;;20.10;60.52;100443.38;5068964;28;20104;-83
2023/04/16 08:13:48;;;;;;;36.95;8.15;;;;;;;20.32;59.83;100447.91;5069647;28;20253;-90
2023/04/16 08:16:14;;;;;;;24.77;6.95;;;;;;;20.36;59.02;100449.22;5071817;28;20107;-82
2023/04/16 08:18:39;;;;;;;21.90;6.82;;;;;;;20.29;58.85;100442.81;5056484;28;20048;-84
2023/04/16 08:21:05;;;;;;;23.98;7.13;;;;;;;20.37;58.49;100434.50;5074549;28;20123;-86
2023/04/16 08:23:31;;;;;;;18.73;6.25;;;;;;;20.32;58.88;100434.25;5075297;28;20025;-83
2023/04/16 08:25:56;;;;;;;25.88;7.65;;;;;;;20.50;58.98;100434.66;5087621;28;20051;-86
2023/04/16 08:28:22;;;;;;;29.58;8.60;;;;;;;20.38;58.51;100422.56;5087521;28;20024;-83
2023/04/16 08:30:47;;;;;;;22.08;6.25;;;;;;;20.30;57.60;100430.88;5074446;28;20064;-86
2023/04/16 08:33:13;;;;;;;31.83;7.90;;;;;;;20.34;57.37;100412.19;5075650;28;20123;-83
2023/04/16 08:35:39;;;;;;;24.73;7.40;;;;;;;20.39;56.78;100421.53;5073674;28;20044;-84
2023/04/16 08:38:06;;;;;;;40.53;7.78;;;;;;;20.47;56.89;100415.06;5074674;28;20024;-84
2023/04/16 08:40:36;;;;;;;27.48;6.30;;;;;;;20.55;57.01;100418.53;5073514;28;20078;-84
2023/04/16 08:43:08;;;;;;;86.95;13.02;;;;;;;20.78;55.77;100406.56;5070445;28;20082;-82
2023/04/16 08:45:34;;;;;;;29.75;6.93;;;;;;;21.00;54.14;100395.41;5072051;28;20028;-81
2023/04/16 08:48:00;;;;;;;30.85;7.43;;;;;;;21.29;53.68;100391.66;5073174;28;20123;-80
2023/04/16 08:50:27;;;;;;;19.45;7.07;;;;;;;21.50;52.49;100402.53;5071352;28;20032;-82
2023/04/16 08:53:01;;;;;;;21.73;7.30;;;;;;;21.58;51.76;100396.91;5070483;28;20052;-86
2023/04/16 08:55:43;;;;;;;20.92;6.60;;;;;;;21.76;51.64;100399.09;5076990;28;20021;-84
2023/04/16 08:58:23;;;;;;;22.25;5.97;;;;;;;21.79;51.21;100386.91;5068136;28;20090;-86
2023/04/16 09:00:50;;;;;;;27.88;6.20;;;;;;;21.83;50.35;100390.94;5072398;28;20032;-85
2023/04/16 09:03:24;;;;;;;18.08;5.78;;;;;;;21.93;50.70;100380.47;5073485;28;20027;-83
2023/04/16 09:05:50;;;;;;;10.02;5.45;;;;;;;22.10;48.79;100381.81;5075786;28;20087;-88
2023/04/16 09:08:17;;;;;;;16.02;5.72;;;;;;;22.25;48.42;100379.75;5082050;28;20059;-87
2023/04/16 09:10:43;;;;;;;30.30;6.28;;;;;;;22.29;48.29;100378.28;5073251;28;20522;-84
2023/04/16 09:13:10;;;;;;;18.40;6.00;;;;;;;22.16;47.57;100372.78;5087630;28;20047;-83
2023/04/16 09:15:36;;;;;;;26.48;7.50;;;;;;;21.90;48.00;100367.16;5090584;28;20024;-83
2023/04/16 09:18:07;;;;;;;14.25;6.30;;;;;;;21.75;49.82;100382.88;5091575;28;20021;-82
2023/04/16 09:20:37;;;;;;;18.17;6.43;;;;;;;21.76;50.68;100376.34;5089609;28;20025;-81
2023/04/16 09:23:03;;;;;;;17.10;6.07;;;;;;;21.80;51.17;100361.22;5014817;28;20118;-82
2023/04/16 09:25:37;;;;;;;17.92;6.38;;;;;;;21.64;51.72;100357.78;5064444;28;20029;-82
2023/04/16 09:28:03;;;;;;;28.75;6.78;;;;;;;21.49;52.36;100359.81;5070779;28;20535;-81
2023/04/16 09:30:28;;;;;;;35.17;6.97;;;;;;;21.32;52.87;100352.94;5070969;28;20052;-83
2023/04/16 09:33:21;;;;;;;32.97;7.68;;;;;;;21.20;53.08;100351.81;5070740;28;20111;-82
2023/04/16 09:35:51;;;;;;;20.25;7.40;;;;;;;20.86;53.90;100349.84;5069037;28;20032;-82
2023/04/16 09:38:18;;;;;;;11.15;6.15;;;;;;;20.64;53.85;100349.03;5067752;28;20086;-82
2023/04/16 09:40:44;;;;;;;33.20;8.55;;;;;;;20.58;54.37;100338.88;5070242;28;20122;-80
2023/04/16 09:43:17;;;;;;;19.25;6.85;;;;;;;20.43;54.72;100354.50;5070788;28;20119;-81
2023/04/16 09:45:51;;;;;;;19.13;6.47;;;;;;;20.34;54.23;100349.34;5069598;28;20487;-81
2023/04/16 09:48:37;;;;;;;15.10;6.40;;;;;;;20.46;54.72;100356.84;5071502;28;20492;-81
2023/04/16 09:51:05;;;;;;;26.58;6.53;;;;;;;20.46;54.04;100343.19;5070770;28;20040;-84
2023/04/16 09:53:31;;;;;;;12.82;5.72;;;;;;;20.60;53.79;100344.16;5067699;28;20028;-84
2023/04/16 09:55:57;;;;;;;12.68;5.57;;;;;;;20.51;53.62;100354.41;5058565;28;20493;-85
2023/04/16 09:58:23;;;;;;;20.30;6.07;;;;;;;20.07;54.97;100348.22;5036211;28;20040;-85
2023/04/16 10:00:54;;;;;;;10.85;5.30;;;;;;;19.92;55.41;100345.53;5050290;28;20798;-82
2023/04/16 10:03:28;;;;;;;35.83;7.72;;;;;;;19.40;56.80;100350.28;5056291;28;20037;-85
2023/04/16 10:05:54;;;;;;;19.02;6.95;;;;;;;19.24;57.67;100348.56;5065183;28;20032;-85
2023/04/16 10:08:19;;;;;;;15.52;6.18;;;;;;;18.99;58.35;100358.00;5050635;28;20444;-85
2023/04/16 10:10:45;;;;;;;13.85;6.07;;;;;;;18.83;58.80;100350.03;5053197;28;20029;-82
2023/04/16 10:13:13;;;;;;;9.00;5.53;;;;;;;18.93;58.98;100359.59;5036234;28;20049;-82
2023/04/16 10:15:39;;;;;;;15.23;8.45;;;;;;;19.09;58.68;100358.59;5068478;28;20040;-85
2023/04/16 10:18:05;;;;;;;16.10;6.55;;;;;;;18.91;58.71;100366.28;5075619;28;20036;-86
2023/04/16 10:20:31;;;;;;;18.63;6.45;;;;;;;18.91;58.83;100369.00;5072600;28;20036;-86
2023/04/16 10:22:57;;;;;;;18.58;6.07;;;;;;;18.63;59.57;100367.88;5056978;28;20021;-88
2023/04/16 10:25:24;;;;;;;13.45;6.28;;;;;;;18.67;59.91;100371.94;5057801;28;20035;-87
2023/04/16 10:27:49;;;;;;;20.50;5.45;;;;;;;18.63;59.20;100384.22;5070551;28;20383;-85
2023/04/16 10:30:16;;;;;;;10.98;5.55;;;;;;;18.24;59.90;100370.72;5071303;28;20119;-89
2023/04/16 10:32:43;;;;;;;20.17;6.95;;;;;;;18.08;61.03;100365.34;5070544;28;20031;-87
2023/04/16 10:35:15;;;;;;;23.95;4.93;;;;;;;18.11;60.95;100373.16;5071812;28;20143;-89
2023/04/16 10:37:41;;;;;;;17.75;6.97;;;;;;;17.92;62.02;100360.84;5070225;28;20025;-87
2023/04/16 10:40:23;;;;;;;26.77;7.75;;;;;;;17.83;62.40;100378.25;5058256;28;20464;-86
2023/04/16 10:42:56;;;;;;;23.77;6.20;;;;;;;17.83;62.52;100380.97;5070639;28;20021;-86
2023/04/16 10:45:29;;;;;;;13.27;6.05;;;;;;;17.84;62.78;100366.34;5069539;28;20052;-86
2023/04/16 10:47:56;;;;;;;18.40;6.28;;;;;;;17.92;62.96;100371.75;5068932;28;20025;-88
2023/04/16 10:50:22;;;;;;;25.23;6.97;;;;;;;17.86;63.34;100370.59;5035150;28;20032;-87
2023/04/16 10:52:47;;;;;;;24.75;7.50;;;;;;;17.92;63.68;100360.84;5071861;28;20020;-87
2023/04/16 10:55:16;;;;;;;18.75;7.43;;;;;;;18.00;63.20;100347.22;5051010;28;20036;-87
2023/04/16 10:57:41;;;;;;;20.65;6.97;;;;;;;18.06;63.16;100362.84;5069504;28;20095;-87
2023/04/16 11:00:21;;;;;;;14.82;7.40;;;;;;;18.12;63.15;100383.88;5068953;28;20180;-85
2023/04/16 11:02:46;;;;;;;17.73;6.22;;;;;;;18.26;62.68;100388.56;5069051;28;20028;-89
2023/04/16 11:05:12;;;;;;;19.80;7.38;;;;;;;18.21;63.21;100390.97;5070738;28;20040;-86
2023/04/16 11:07:47;;;;;;;18.50;6.75;;;;;;;18.21;63.02;100382.81;5075607;28;20025;-89
2023/04/16 11:10:12;;;;;;;21.52;7.82;;;;;;;18.18;62.95;100366.00;5073239;28;20040;-89
2023/04/16 11:12:40;;;;;;;21.67;8.57;;;;;;;18.55;62.11;100362.53;5074885;28;20032;-86